Main page
METAR-TAF:

METAR-TAF

Airports :

Rabat–Salé Airport

Rabat, Morocco

latitude: 34-03N, longitude: 006-46W, elevation: 84 m

Current weather observation

The report was made 39 minutes ago, at 08:30 UTC
Wind 3 kt from the South/Southwest, varying between Southeast and West/Southwest
Temperature 21°C
Humidity 83%
Pressure 1015 hPa
Visibility 10 km or more
no clouds below 1500 m and no cumulonimbus

METAR: GMME 210830Z 20003KT 140V250 CAVOK 21/18 Q1015 NOSIG

Time: 10:09 (09:09 UTC)

Forecast

The report was made 4 hours and 9 minutes ago, at 05:00 UTC
Forecast valid from 21 at 06 UTC to 22 at 12 UTC
Wind 10 kt from the Northwest
Visibility: 8000 m

TAF: GMME 210500Z 2106/2212 32010KT 8000 NSC

Weather observations and forecasts of more than 4000 airports (METAR and TAF reports).

The available stations are represented by yellow and red dots on the map.

Hover mouse over dot to see the name of the station.

Then click to see weather observations and forecasts.

To change the map : click on the green buttons with a black cross to zoom in, on the green button with a dash to zoom out, or on the green arrows for adjacent maps.


METAR-TAF: